Easton, New Hampshire
Current Conditions -  °F | °C
As of 5:55 AM on Thursday 27 Nov 2014 (Local Time) from K1P1 Reporting Station
Overcast Overcast  
Wind Chill: 22°   Ceiling: 9500
Heat Index: 31°   Visibility: 10mi
Dew Point: 29°   Wind: 12mph
Humidity: 92%   Direction: 280°W
Pressure: 29.82"   Gusts: 17mph
Location:  44.1173°N, 71.8999°W
Report Text: K1P1 271055Z AUTO 28010G15KT 10SM SCT080 OVC095 M01/M02 A2982 RMK AO2 T10061017
Loading
Personal Weather Stations






























Interactive Weather Map New forecast layout! Learn more

10-Day Weather Forecast

Advertisements
Track Severe Weather on mobile